Green Maru No.8 — JD2165 — position and weather

sailwx.info

Track history (hours):
 
Tides and Currents Weather Stations Pressure Air Temp Water Temp Dewpoint Dewpoint Depression Visibility Wind Speed Wind Dir Waves Ship Positions

Green Maru No.8

Last reported at 2017-Oct-17 05:23 UTC. Time now 2017-Oct-17 05:48 UTC.
Position N 34°31' E 135°24'.

Length 71 m; draft 4.7 m.

Type: Tanker. MMSI: 431501838.

Date/timePositionNaut miles runAvg speedWind from/ knotsBaromVisibWave heightAir tempDewpointWater temp
2017-Oct-17 05:23N 34°31' E 135°24'1 0.1
2017-Oct-16 22:58N 34°31' E 135°25'1 1.4
2017-Oct-16 22:30N 34°32' E 135°24'4 7.4
2017-Oct-16 22:00N 34°33' E 135°20'1 1.5
2017-Oct-16 21:28N 34°32' E 135°19'0 0.0
2017-Oct-16 20:58N 34°32' E 135°19'0 0.0
2017-Oct-16 20:28N 34°32' E 135°19'0 0.0
2017-Oct-16 19:58N 34°32' E 135°19'0 0.0
2017-Oct-16 19:22N 34°32' E 135°19'0 0.0
2017-Oct-16 18:52N 34°32' E 135°19'0 0.0
2017-Oct-16 18:28N 34°32' E 135°19'0 0.0
2017-Oct-16 16:52N 34°32' E 135°19'0 0.0
2017-Oct-16 16:23N 34°32' E 135°19'1 3.7
2017-Oct-16 16:00N 34°33' E 135°17'612.0
2017-Oct-16 15:30N 34°34' E 135°10'713.7
2017-Oct-16 15:00N 34°36' E 135°02'1 0.0
2017-Oct-15 00:20N 34°36' E 135°04'  
Track history (hours):
 
Tides and Currents Weather Stations Pressure Air Temp Water Temp Dewpoint Dewpoint Depression Visibility Wind Speed Wind Dir Waves Ship Positions

Green Maru No.8

Last reported at 2017-Oct-17 05:23 UTC. Time now 2017-Oct-17 05:48 UTC.
Position N 34°31' E 135°24'.

Length 71 m; draft 4.7 m.

Type: Tanker. MMSI: 431501838.

Date/timePositionNaut miles runAvg speedWind from/ knotsBaromVisibWave heightAir tempDewpointWater temp
2017-Oct-17 05:23N 34°31' E 135°24'1 0.1
2017-Oct-16 22:58N 34°31' E 135°25'1 1.4
2017-Oct-16 22:30N 34°32' E 135°24'4 7.4
2017-Oct-16 22:00N 34°33' E 135°20'1 1.5
2017-Oct-16 21:28N 34°32' E 135°19'0 0.0
2017-Oct-16 20:58N 34°32' E 135°19'0 0.0
2017-Oct-16 20:28N 34°32' E 135°19'0 0.0
2017-Oct-16 19:58N 34°32' E 135°19'0 0.0
2017-Oct-16 19:22N 34°32' E 135°19'0 0.0
2017-Oct-16 18:52N 34°32' E 135°19'0 0.0
2017-Oct-16 18:28N 34°32' E 135°19'0 0.0
2017-Oct-16 16:52N 34°32' E 135°19'0 0.0
2017-Oct-16 16:23N 34°32' E 135°19'1 3.7
2017-Oct-16 16:00N 34°33' E 135°17'612.0
2017-Oct-16 15:30N 34°34' E 135°10'713.7
2017-Oct-16 15:00N 34°36' E 135°02'1 0.0
2017-Oct-15 00:20N 34°36' E 135°04'  

Dump ship's entire track history